createdAt,value
2023-01-23T00:01:08.737Z,2.17
2023-01-23T00:03:37.074Z,2.26
2023-01-23T00:06:11.870Z,2.27
2023-01-23T00:08:42.347Z,2.31
2023-01-23T00:11:20.995Z,2.36
2023-01-23T00:13:50.041Z,2.36
2023-01-23T00:16:20.760Z,2.40
2023-01-23T00:18:50.423Z,2.38
2023-01-23T00:21:37.401Z,2.35
2023-01-23T00:24:24.254Z,2.23
2023-01-23T00:26:52.913Z,2.23
2023-01-23T00:29:20.895Z,2.24
2023-01-23T00:31:49.244Z,2.29
2023-01-23T00:34:17.761Z,2.27
2023-01-23T00:36:45.917Z,2.23
2023-01-23T00:39:19.803Z,2.26
2023-01-23T00:41:49.301Z,2.33
2023-01-23T00:44:18.198Z,2.38
2023-01-23T00:46:46.985Z,2.35
2023-01-23T00:49:17.889Z,2.31
2023-01-23T00:51:46.559Z,2.26
2023-01-23T00:54:14.896Z,2.12
2023-01-23T00:56:43.634Z,2.07
2023-01-23T00:59:11.905Z,2.05
2023-01-23T01:01:40.449Z,2.02
2023-01-23T01:04:08.719Z,2.04
2023-01-23T01:06:37.491Z,2.11
2023-01-23T01:09:06.108Z,2.17
2023-01-23T01:11:39.655Z,2.23
2023-01-23T01:14:08.114Z,2.27
2023-01-23T01:16:36.426Z,2.24
2023-01-23T01:19:05.371Z,2.24
2023-01-23T01:21:36.205Z,2.27
2023-01-23T01:24:04.584Z,2.29
2023-01-23T01:26:32.651Z,2.32
2023-01-23T01:29:05.895Z,2.19
2023-01-23T01:31:34.015Z,2.15
2023-01-23T01:34:02.885Z,2.16
2023-01-23T01:36:31.086Z,2.06
2023-01-23T01:39:18.425Z,2.05
2023-01-23T01:42:05.335Z,2.07
2023-01-23T01:45:00.044Z,2.04
2023-01-23T01:47:28.619Z,2.07
2023-01-23T01:50:01.638Z,2.17
2023-01-23T01:52:29.881Z,2.21
2023-01-23T01:55:06.245Z,2.24
2023-01-23T01:57:42.828Z,2.30
2023-01-23T02:00:17.170Z,2.36
2023-01-23T02:02:53.957Z,2.36
2023-01-23T02:05:33.385Z,2.28
2023-01-23T02:08:13.520Z,2.27
2023-01-23T02:10:42.768Z,2.28
2023-01-23T02:13:36.231Z,2.32
2023-01-23T02:16:10.549Z,2.27
2023-01-23T02:18:44.768Z,2.25
2023-01-23T02:21:15.250Z,2.27
2023-01-23T02:24:10.497Z,2.27
2023-01-23T02:26:42.090Z,2.19
2023-01-23T02:29:12.013Z,2.12
2023-01-23T02:31:51.913Z,2.11
2023-01-23T02:34:22.995Z,2.06
2023-01-23T02:36:52.061Z,2.04
2023-01-23T02:39:20.364Z,2.05
2023-01-23T02:41:58.675Z,2.12
2023-01-23T02:44:39.738Z,2.09
2023-01-23T02:47:13.065Z,2.09
2023-01-23T02:50:00.561Z,2.03
2023-01-23T02:52:29.324Z,2.00
2023-01-23T02:54:57.449Z,1.95
2023-01-23T02:57:26.711Z,2.01
2023-01-23T03:00:13.841Z,2.05
2023-01-23T03:02:42.811Z,2.12
2023-01-23T03:05:12.055Z,2.20
2023-01-23T03:07:59.026Z,2.12
2023-01-23T03:10:27.135Z,2.12
2023-01-23T03:13:15.444Z,2.21
2023-01-23T03:15:53.157Z,2.28
2023-01-23T03:18:21.824Z,2.34
2023-01-23T03:20:50.000Z,2.40
2023-01-23T03:23:18.500Z,2.45
2023-01-23T03:25:58.783Z,2.44
2023-01-23T03:28:49.130Z,2.47
2023-01-23T03:31:17.542Z,2.52
2023-01-23T03:33:46.416Z,2.56
2023-01-23T03:36:14.937Z,2.59
2023-01-23T03:39:03.399Z,2.63
2023-01-23T03:41:31.771Z,2.69
2023-01-23T03:44:03.972Z,2.71
2023-01-23T03:46:32.668Z,2.72
2023-01-23T03:49:05.850Z,2.72
2023-01-23T03:51:35.049Z,2.72
2023-01-23T03:54:03.326Z,2.70
2023-01-23T03:56:32.034Z,2.68
2023-01-23T03:59:00.608Z,2.67
2023-01-23T04:01:28.923Z,2.66
2023-01-23T04:03:57.116Z,2.68
2023-01-23T04:06:34.474Z,2.70
2023-01-23T04:09:03.477Z,2.70
2023-01-23T04:11:34.716Z,2.70
2023-01-23T04:14:04.191Z,2.71
2023-01-23T04:16:32.349Z,2.71
2023-01-23T04:19:00.461Z,2.67
2023-01-23T04:21:28.991Z,2.62
2023-01-23T04:23:56.940Z,2.59
2023-01-23T04:26:24.929Z,2.55
2023-01-23T04:28:53.339Z,2.53
2023-01-23T04:31:21.819Z,2.53
2023-01-23T04:33:50.431Z,2.52
2023-01-23T04:36:37.118Z,2.50
2023-01-23T04:39:08.670Z,2.49
2023-01-23T04:41:37.855Z,2.51
2023-01-23T04:44:21.128Z,2.54
2023-01-23T04:47:14.958Z,2.57
2023-01-23T04:49:47.370Z,2.59
2023-01-23T04:52:15.719Z,2.60
2023-01-23T04:54:51.030Z,2.64
2023-01-23T04:57:19.840Z,2.67
2023-01-23T04:59:48.147Z,2.71
2023-01-23T05:02:17.440Z,2.74
2023-01-23T05:04:46.498Z,2.74
2023-01-23T05:07:15.804Z,2.76
2023-01-23T05:09:50.789Z,2.76
2023-01-23T05:12:18.885Z,2.76
2023-01-23T05:30:06.305Z,2.40
2023-01-23T05:32:36.544Z,2.39
2023-01-23T05:35:16.215Z,2.41
2023-01-23T05:37:49.576Z,2.44
2023-01-23T05:40:19.387Z,2.48
2023-01-23T05:43:15.325Z,2.50
2023-01-23T05:46:03.106Z,2.50
2023-01-23T05:48:42.273Z,2.44
2023-01-23T05:51:12.075Z,2.42
2023-01-23T06:08:48.466Z,2.45
2023-01-23T06:11:16.729Z,2.45
2023-01-23T06:13:44.758Z,2.48
2023-01-23T06:16:17.864Z,2.49
2023-01-23T06:18:50.929Z,2.42
2023-01-23T06:21:20.087Z,2.34
2023-01-23T06:23:49.224Z,2.35
2023-01-23T06:26:17.680Z,2.36
2023-01-23T06:28:45.853Z,2.38
2023-01-23T06:31:14.180Z,2.39
2023-01-23T06:33:52.245Z,2.39
2023-01-23T06:36:41.617Z,2.40
2023-01-23T06:39:14.359Z,2.42
2023-01-23T06:41:43.710Z,2.44
2023-01-23T06:44:14.811Z,2.46
2023-01-23T06:46:43.215Z,2.44
2023-01-23T06:49:11.713Z,2.39
2023-01-23T06:51:39.990Z,2.37
2023-01-23T06:54:33.891Z,2.36
2023-01-23T06:57:04.536Z,2.36
2023-01-23T06:59:33.074Z,2.37
2023-01-23T07:02:02.035Z,2.29
2023-01-23T07:04:43.809Z,2.17
2023-01-23T07:07:12.919Z,2.21
2023-01-23T07:09:41.683Z,2.26
2023-01-23T07:12:25.241Z,2.32
2023-01-23T07:14:53.536Z,2.37
2023-01-23T07:17:29.673Z,2.38
2023-01-23T07:19:57.717Z,2.28
2023-01-23T07:22:27.265Z,2.12
2023-01-23T07:24:55.940Z,2.09
2023-01-23T07:27:23.998Z,2.05
2023-01-23T07:29:52.040Z,2.05
2023-01-23T07:32:20.463Z,2.10
2023-01-23T07:34:48.475Z,2.14
2023-01-23T07:37:16.486Z,2.10
2023-01-23T07:39:45.807Z,2.09
2023-01-23T07:42:14.177Z,2.04
2023-01-23T07:44:43.032Z,2.04
2023-01-23T07:47:11.183Z,2.09
2023-01-23T07:49:39.304Z,2.12
2023-01-23T07:52:07.592Z,2.17
2023-01-23T07:54:54.683Z,2.22
2023-01-23T07:57:25.076Z,2.27
2023-01-23T07:59:53.234Z,2.20
2023-01-23T08:02:29.444Z,2.08
2023-01-23T08:04:57.949Z,2.00
2023-01-23T08:07:25.950Z,1.91
2023-01-23T08:09:54.280Z,1.93
2023-01-23T08:12:22.746Z,2.01
2023-01-23T08:14:50.933Z,2.10
2023-01-23T08:17:22.019Z,2.18
2023-01-23T08:19:50.204Z,2.23
2023-01-23T08:22:18.667Z,2.27
2023-01-23T08:24:47.632Z,2.31
2023-01-23T08:27:23.674Z,2.37
2023-01-23T08:29:52.367Z,2.40
2023-01-23T08:32:20.441Z,2.43
2023-01-23T08:34:49.056Z,2.46
2023-01-23T08:37:23.822Z,2.48
2023-01-23T08:42:57.499Z,2.49
2023-01-23T08:45:25.975Z,2.51
2023-01-23T08:47:54.117Z,2.45
2023-01-23T08:50:22.780Z,2.31
2023-01-23T08:52:51.179Z,2.24
2023-01-23T08:55:19.207Z,2.26
2023-01-23T08:57:47.689Z,2.30
2023-01-23T09:00:16.127Z,2.33
2023-01-23T09:02:44.262Z,2.37
2023-01-23T09:05:12.688Z,2.37
2023-01-23T09:07:41.031Z,2.38
2023-01-23T09:10:12.951Z,2.36
2023-01-23T09:12:43.041Z,2.34
2023-01-23T09:15:11.237Z,2.38
2023-01-23T09:17:39.487Z,2.36
2023-01-23T09:20:13.670Z,2.30
2023-01-23T09:22:42.182Z,2.30
2023-01-23T09:25:11.445Z,2.32
2023-01-23T09:27:39.485Z,2.32
2023-01-23T09:30:10.072Z,2.38
2023-01-23T09:32:38.723Z,2.37
2023-01-23T09:35:07.114Z,2.37
2023-01-23T09:37:58.390Z,2.44
2023-01-23T09:40:35.757Z,2.49
2023-01-23T09:43:30.616Z,2.57
2023-01-23T09:46:05.064Z,2.62
2023-01-23T09:48:53.908Z,2.66
2023-01-23T09:51:31.125Z,2.69
2023-01-23T09:54:07.899Z,2.68
2023-01-23T09:56:45.342Z,2.68
2023-01-23T09:59:50.163Z,2.73
2023-01-23T10:02:48.816Z,2.73
2023-01-23T10:05:18.609Z,2.73
2023-01-23T10:07:55.649Z,2.74
2023-01-23T10:10:51.100Z,2.75
2023-01-23T10:13:43.808Z,2.69
2023-01-23T10:16:14.576Z,2.72
2023-01-23T10:18:53.129Z,2.73
2023-01-23T10:21:52.753Z,2.76
2023-01-23T10:27:43.493Z,2.79
2023-01-23T10:30:24.803Z,2.80
2023-01-23T10:33:11.287Z,2.80
2023-01-23T10:35:56.471Z,2.71
2023-01-23T10:38:50.014Z,2.62
2023-01-23T10:41:22.392Z,2.54
2023-01-23T10:43:54.271Z,2.57
2023-01-23T10:46:56.630Z,2.62
2023-01-23T10:49:43.250Z,2.68
2023-01-23T10:52:42.006Z,2.72
2023-01-23T10:55:31.204Z,2.74
2023-01-23T10:58:29.084Z,2.77
2023-01-23T11:00:57.797Z,2.80
2023-01-23T11:03:34.905Z,2.83
2023-01-23T11:06:30.881Z,2.86
2023-01-23T11:09:00.572Z,2.88
2023-01-23T11:11:31.684Z,2.89
2023-01-23T11:14:05.775Z,2.88
2023-01-23T11:16:35.459Z,2.89
2023-01-23T11:19:14.635Z,2.87
2023-01-23T11:21:54.118Z,2.82
2023-01-23T11:24:38.381Z,2.82
2023-01-23T11:27:30.122Z,2.83
2023-01-23T11:30:25.204Z,2.84
2023-01-23T11:33:10.845Z,2.83
2023-01-23T11:36:30.505Z,2.83
2023-01-23T11:39:13.607Z,2.81
2023-01-23T11:41:41.722Z,2.80
2023-01-23T11:44:21.123Z,2.81
2023-01-23T11:47:13.632Z,2.82
2023-01-23T11:50:04.517Z,2.81
2023-01-23T11:52:38.689Z,2.83
2023-01-23T11:55:39.112Z,2.84
2023-01-23T11:58:37.201Z,2.83
2023-01-23T12:01:18.334Z,2.83
2023-01-23T12:04:03.956Z,2.83
2023-01-23T12:06:47.490Z,2.85
2023-01-23T12:09:17.968Z,2.85
2023-01-23T12:12:07.894Z,2.86
2023-01-23T12:15:32.519Z,2.87
2023-01-23T12:18:23.846Z,2.85
2023-01-23T12:21:09.469Z,2.87
2023-01-23T12:24:04.001Z,2.86
2023-01-23T12:26:34.490Z,2.86
2023-01-23T12:29:26.981Z,2.87
2023-01-23T12:32:39.289Z,2.88
2023-01-23T12:36:00.844Z,2.89
2023-01-23T12:38:29.050Z,2.89
2023-01-23T12:41:14.225Z,2.89
2023-01-23T12:44:32.188Z,2.91
2023-01-23T12:47:07.924Z,2.89
2023-01-23T12:49:44.190Z,2.86
2023-01-23T12:52:28.685Z,2.87
2023-01-23T12:55:17.699Z,2.85
2023-01-23T12:58:00.061Z,2.80
2023-01-23T13:01:13.878Z,2.78
2023-01-23T13:04:17.547Z,2.78
2023-01-23T13:06:59.927Z,2.81
2023-01-23T13:09:50.644Z,2.83
2023-01-23T13:12:26.377Z,2.85
2023-01-23T13:15:22.684Z,2.85
2023-01-23T13:18:02.665Z,2.86
2023-01-23T13:20:52.526Z,2.87
2023-01-23T13:23:32.641Z,2.88
2023-01-23T13:26:20.474Z,2.84
2023-01-23T13:28:57.634Z,2.77
2023-01-23T13:31:47.672Z,2.76
2023-01-23T13:34:16.764Z,2.73
2023-01-23T13:36:45.745Z,2.69
2023-01-23T13:39:17.140Z,2.66
2023-01-23T13:42:06.606Z,2.68
2023-01-23T13:44:42.128Z,2.70
2023-01-23T14:23:33.137Z,2.30
2023-01-23T14:26:01.047Z,2.27
2023-01-23T14:28:29.531Z,2.27
2023-01-23T14:31:23.402Z,2.30
2023-01-23T14:34:09.195Z,2.35
2023-01-23T14:36:39.053Z,2.40
2023-01-23T14:39:07.389Z,2.45
2023-01-23T14:41:41.733Z,2.49
2023-01-23T14:44:24.854Z,2.51
2023-01-23T14:46:55.448Z,2.52
2023-01-23T14:49:36.141Z,2.52
2023-01-23T14:52:06.907Z,2.55
2023-01-23T14:54:55.411Z,2.59
2023-01-23T14:57:26.613Z,2.60
2023-01-23T14:59:59.289Z,2.62
2023-01-23T15:02:36.622Z,2.64
2023-01-23T15:05:20.491Z,2.65
2023-01-23T15:08:17.145Z,2.66
2023-01-23T15:10:49.038Z,2.66
2023-01-23T15:13:40.465Z,2.62
2023-01-23T15:16:26.348Z,2.60
2023-01-23T15:18:57.837Z,2.60
2023-01-23T15:21:32.451Z,2.58
2023-01-23T15:24:16.836Z,2.58
2023-01-23T15:27:07.731Z,2.58
2023-01-23T15:30:32.477Z,2.57
2023-01-23T15:33:10.299Z,2.57
2023-01-23T15:35:38.537Z,2.59
2023-01-23T15:38:28.888Z,2.60
2023-01-23T15:40:57.346Z,2.59
2023-01-23T15:43:44.067Z,2.59
2023-01-23T15:46:16.996Z,2.60
2023-01-23T15:48:45.180Z,2.60
2023-01-23T15:51:13.561Z,2.59
2023-01-23T15:53:41.587Z,2.56
2023-01-23T15:56:24.755Z,2.55
2023-01-23T15:58:52.757Z,2.53
2023-01-23T16:01:21.679Z,2.51
2023-01-23T16:04:08.624Z,2.44
2023-01-23T16:06:37.677Z,2.34
2023-01-23T16:09:06.398Z,2.25
2023-01-23T16:11:39.502Z,2.27
2023-01-23T16:14:15.749Z,2.27
2023-01-23T16:17:15.531Z,2.28
2023-01-23T16:19:45.180Z,2.27
2023-01-23T16:22:18.003Z,2.27
2023-01-23T16:24:46.558Z,2.23
2023-01-23T16:27:39.437Z,2.21
2023-01-23T16:30:16.528Z,2.20
2023-01-23T16:32:44.977Z,2.11
2023-01-23T16:35:14.445Z,2.04
2023-01-23T16:37:45.522Z,1.96
2023-01-23T16:40:20.023Z,1.94
2023-01-23T16:42:50.628Z,1.96
2023-01-23T16:45:21.760Z,2.03
2023-01-23T16:47:50.777Z,2.11
2023-01-23T16:50:22.879Z,2.12
2023-01-23T16:52:55.403Z,2.14
2023-01-23T16:55:27.699Z,2.20
2023-01-23T16:57:57.563Z,2.27
2023-01-23T17:00:34.480Z,2.32
2023-01-23T17:03:09.115Z,2.34
2023-01-23T17:05:37.392Z,2.36
2023-01-23T17:08:26.156Z,2.38
2023-01-23T17:11:01.583Z,2.40
2023-01-23T17:13:34.056Z,2.42
2023-01-23T17:16:27.409Z,2.44
2023-01-23T17:19:00.121Z,2.44
2023-01-23T17:21:34.936Z,2.46
2023-01-23T17:24:03.235Z,2.48
2023-01-23T17:26:33.356Z,2.50
2023-01-23T17:29:01.589Z,2.51
2023-01-23T17:31:29.890Z,2.52
2023-01-23T17:33:58.191Z,2.53
2023-01-23T17:36:26.594Z,2.55
2023-01-23T17:38:57.823Z,2.56
2023-01-23T17:41:44.577Z,2.57
2023-01-23T17:44:12.662Z,2.56
2023-01-23T17:46:41.464Z,2.57
2023-01-23T17:49:30.497Z,2.58
2023-01-23T17:52:01.080Z,2.57
2023-01-23T17:54:29.844Z,2.58
2023-01-23T17:56:58.087Z,2.58
2023-01-23T17:59:26.310Z,2.57
2023-01-23T18:01:56.202Z,2.57
2023-01-23T18:04:24.772Z,2.57
2023-01-23T18:06:53.013Z,2.55
2023-01-23T18:09:21.709Z,2.53
2023-01-23T18:11:54.516Z,2.53
2023-01-23T18:14:55.782Z,2.51
2023-01-23T18:17:43.319Z,2.49
2023-01-23T18:20:17.968Z,2.48
2023-01-23T18:22:47.243Z,2.47
2023-01-23T18:25:19.823Z,2.46
2023-01-23T18:27:53.610Z,2.36
2023-01-23T18:30:30.934Z,2.12
2023-01-23T18:33:22.915Z,1.95
2023-01-23T18:36:12.535Z,1.80
2023-01-23T18:38:58.927Z,1.74
2023-01-23T18:41:29.041Z,1.75
2023-01-23T18:44:34.192Z,1.81
2023-01-23T18:47:05.734Z,1.91
2023-01-23T18:49:34.010Z,1.98
2023-01-23T18:52:09.658Z,2.05
2023-01-23T18:54:42.092Z,2.07
2023-01-23T18:57:16.532Z,2.08
2023-01-23T19:00:05.979Z,2.10
2023-01-23T19:02:42.029Z,2.15
2023-01-23T19:05:20.930Z,2.20
2023-01-23T19:07:49.960Z,2.22
2023-01-23T19:10:28.039Z,2.25
2023-01-23T19:13:09.773Z,2.28
2023-01-23T19:15:57.761Z,2.32
2023-01-23T19:18:45.947Z,2.34
2023-01-23T19:21:16.361Z,2.37
2023-01-23T19:23:52.047Z,2.37
2023-01-23T19:26:29.784Z,2.37
2023-01-23T19:29:08.442Z,2.38
2023-01-23T19:32:05.516Z,2.39
2023-01-23T19:34:35.020Z,2.40
2023-01-23T19:37:22.522Z,2.41
2023-01-23T19:39:50.847Z,2.40
2023-01-23T19:42:18.833Z,2.36
2023-01-23T19:44:47.066Z,2.29
2023-01-23T19:47:15.388Z,2.27
2023-01-23T19:49:43.476Z,2.27
2023-01-23T19:52:15.693Z,2.28
2023-01-23T19:54:48.567Z,2.31
2023-01-23T19:57:16.770Z,2.33
2023-01-23T19:59:44.779Z,2.33
2023-01-23T20:02:19.563Z,2.35
2023-01-23T20:04:48.114Z,2.32
2023-01-23T20:07:16.172Z,2.25
2023-01-23T20:09:44.347Z,2.23
2023-01-23T20:12:31.496Z,2.23
2023-01-23T20:14:59.962Z,2.24
2023-01-23T20:17:28.430Z,2.27
2023-01-23T20:19:56.783Z,2.28
2023-01-23T20:22:24.779Z,2.29
2023-01-23T20:24:53.055Z,2.31
2023-01-23T20:27:21.391Z,2.29
2023-01-23T20:30:19.284Z,2.26
2023-01-23T20:32:49.234Z,2.24
2023-01-23T20:35:17.706Z,2.25
2023-01-23T20:37:45.685Z,2.23
2023-01-23T20:40:13.867Z,2.21
2023-01-23T20:42:42.004Z,2.22
2023-01-23T20:45:10.592Z,2.21
2023-01-23T20:47:38.759Z,2.21
2023-01-23T20:50:07.486Z,2.25
2023-01-23T20:52:54.247Z,2.29
2023-01-23T20:55:41.429Z,2.32
2023-01-23T20:58:28.166Z,2.29
2023-01-23T21:00:56.764Z,2.16
2023-01-23T21:03:24.950Z,2.14
2023-01-23T21:05:53.282Z,2.09
2023-01-23T21:08:21.847Z,2.08
2023-01-23T21:11:12.111Z,2.00
2023-01-23T21:13:40.771Z,1.95
2023-01-23T21:16:13.570Z,1.97
2023-01-23T21:19:01.474Z,2.04
2023-01-23T21:21:29.984Z,2.09
2023-01-23T21:23:58.441Z,2.13
2023-01-23T21:26:28.054Z,2.15
2023-01-23T21:28:57.881Z,2.14
2023-01-23T21:31:29.305Z,2.12
2023-01-23T21:34:01.095Z,2.14
2023-01-23T21:36:48.127Z,2.11
2023-01-23T21:39:16.593Z,2.06
2023-01-23T21:41:48.327Z,2.08
2023-01-23T21:44:35.916Z,2.15
2023-01-23T21:47:04.126Z,2.21
2023-01-23T21:49:32.125Z,2.22
2023-01-23T21:52:04.784Z,2.18
2023-01-23T21:54:33.176Z,2.12
2023-01-23T21:57:01.660Z,2.09
2023-01-23T21:59:29.704Z,2.05
2023-01-23T22:01:57.899Z,2.05
2023-01-23T22:04:29.975Z,2.05
2023-01-23T22:06:58.961Z,2.04
2023-01-23T22:09:27.266Z,1.98
2023-01-23T22:11:55.930Z,1.88
2023-01-23T22:14:24.312Z,1.77
2023-01-23T22:16:52.531Z,1.68
2023-01-23T22:19:25.106Z,1.59
2023-01-23T22:21:57.686Z,1.53
2023-01-23T22:24:26.125Z,1.47
2023-01-23T22:26:54.179Z,1.44
2023-01-23T22:29:24.201Z,1.44
2023-01-23T22:31:52.556Z,1.43
2023-01-23T22:34:20.725Z,1.41
2023-01-23T22:36:49.428Z,1.40
2023-01-23T22:39:19.784Z,1.46
2023-01-23T22:41:50.196Z,1.55
2023-01-23T22:44:19.078Z,1.63
2023-01-23T22:46:50.352Z,1.68
2023-01-23T22:49:18.445Z,1.74
2023-01-23T22:51:46.908Z,1.76
2023-01-23T22:54:14.962Z,1.75
2023-01-23T22:56:44.224Z,1.78
2023-01-23T22:59:12.530Z,1.80
2023-01-23T23:01:40.498Z,1.87
2023-01-23T23:04:09.649Z,1.92
2023-01-23T23:06:38.232Z,1.92
2023-01-23T23:09:06.245Z,1.79
2023-01-23T23:11:36.119Z,1.68
2023-01-23T23:14:23.014Z,1.61
2023-01-23T23:17:09.776Z,1.65
2023-01-23T23:19:56.676Z,1.69
2023-01-23T23:22:25.091Z,1.72
2023-01-23T23:25:12.185Z,1.77
2023-01-23T23:27:40.336Z,1.82
2023-01-23T23:30:08.964Z,1.86
2023-01-23T23:32:37.235Z,1.90
2023-01-23T23:35:05.683Z,1.85
2023-01-23T23:37:33.719Z,1.71
2023-01-23T23:40:02.038Z,1.59
2023-01-23T23:42:30.140Z,1.52
2023-01-23T23:44:58.447Z,1.55
2023-01-23T23:47:26.768Z,1.60
2023-01-23T23:49:54.722Z,1.65
2023-01-23T23:52:24.925Z,1.67
2023-01-23T23:55:15.873Z,1.71
2023-01-23T23:57:44.194Z,1.68
